< < Back
Terminal Aerodrome Forecast


Current Version              Previous Versions:   1  2  3  4  5  6  7  8  9  

Terminal Aerodrome Forecast

297
FTUS42 KMLB 011135
TAFDAB
TAF
KDAB 011135Z 0112/0212 04005KT 5SM BR SCT003 SCT020 BKN025
     FM011400 11008KT P6SM SCT006 BKN020
     FM011800 11008KT P6SM VCSH BKN035
     FM020000 09003KT P6SM SCT020 BKN080
     FM020300 VRB03KT 5SM BR BKN015=



Latest METAR

853
SAUS80 KWBC 011500 RRG
MTRDAB
METAR KDAB 011453Z 03005KT 6SM BR BKN019 BKN029 OVC040 18/16 A3041 RMK
AO2 SLP297 T01780161 51013 $


USA.gov is the U.S. government's official web portal to all federal, state and local government web resources and services.